• Join FlightAware (Why Join?)
  • Login
  • US Flag 
03:41PM EDT


 

Airport Tracker/Info


-or-


 

Live Flight TrackerFlight Track Log ✈ N43317 ✈ 18-May-2013 ✈ KCBF - KVMR

Flight Track Log - Related Links

Times and Time Zones

All times are in EDT time to prevent confusion due to time zone crossing. See the N43317 flight status page for this flight to view local times or setup timezone preferences in your user account.

Time Position Orientation Groundspeed Altitude Reporting Facility
EDT Latitude Longitude Course Direction KTS MPH feet Rate Location/Type
06:57AM 41.2792 -95.7494 350° North 141 162 2,200  Level Minneapolis Center
06:57AM 41.2942 -95.7531 350° North 135 155 2,500 540 Climbing Minneapolis Center
06:58AM 41.3239 -95.7581 353° North 108 124 3,100 480 Climbing Minneapolis Center
06:59AM 41.3303 -95.7550 20° North 112 129 3,200 420 Climbing Minneapolis Center
06:59AM 41.3514 -95.7631 344° North 106 122 3,500 360 Climbing Minneapolis Center
07:00AM 41.3581 -95.7639 355° North 108 124 3,600 360 Climbing Minneapolis Center
07:00AM 41.3761 -95.7881 315° West 113 130 3,900 480 Climbing Minneapolis Center
07:01AM 41.3875 -95.7942 338° Northwest 111 128 4,100 420 Climbing Minneapolis Center
07:01AM 41.4050 -95.8150 318° Northwest 111 128 4,400 360 Climbing Minneapolis Center
07:02AM 41.4131 -95.8183 343° North 112 129 4,500 360 Climbing Minneapolis Center
07:02AM 41.4317 -95.8369 323° Northwest 112 129 4,800 240 Climbing Minneapolis Center
07:03AM 41.4342 -95.8347 34° Northeast 112 129 4,800 300 Level Minneapolis Center
07:03AM 41.4539 -95.8594 317° Northwest 110 127 5,100 480 Climbing Minneapolis Center
07:04AM 41.4647 -95.8606 356° North 110 127 5,300 360 Climbing Minneapolis Center
07:04AM 41.4803 -95.8786 319° Northwest 110 127 5,500 300 Climbing Minneapolis Center
07:05AM 41.4911 -95.8811 350° North 110 127 5,600 360 Climbing Minneapolis Center
07:05AM 41.5050 -95.9036 310° West 109 125 5,900 480 Climbing Minneapolis Center
07:06AM 41.5158 -95.9039 359° North 109 125 6,100 480 Climbing Minneapolis Center
07:06AM 41.5314 -95.9228 318° Northwest 109 125 6,400 240 Climbing Minneapolis Center
07:07AM 41.5431 -95.9211 North 108 124 6,400 120 Level Minneapolis Center
07:07AM 41.5639 -95.9411 324° Northwest 114 131 6,600 300 Climbing Minneapolis Center
07:08AM 41.5725 -95.9358 25° Northeast 110 127 6,700 300 Climbing Minneapolis Center
07:08AM 41.5906 -95.9633 311° West 112 129 6,900 180 Climbing Minneapolis Center
07:09AM 41.5986 -95.9583 25° Northeast 112 129 6,900 180 Level Minneapolis Center
07:09AM 41.6128 -95.9831 307° West 109 125 7,100 240 Climbing Minneapolis Center
07:10AM 41.6239 -95.9800 12° North 110 127 7,200 180 Climbing Minneapolis Center
07:11AM 41.6500 -96.0014 329° Northwest 110 127 7,400 180 Climbing Minneapolis Center
07:12AM 41.6772 -96.0217 331° Northwest 111 128 7,600 180 Climbing Minneapolis Center
07:13AM 41.7050 -96.0414 332° Northwest 112 129 7,800 180 Climbing Minneapolis Center
07:14AM 41.7319 -96.0636 328° Northwest 113 130 8,000 60 Climbing Minneapolis Center
07:15AM 41.7619 -96.0867 330° Northwest 117 135 8,000  Level Minneapolis Center
07:16AM 41.7942 -96.1131 329° Northwest 126 145 8,100  Climbing Minneapolis Center
07:17AM 41.8244 -96.1417 325° Northwest 131 151 8,100 -60 Level Minneapolis Center
07:18AM 41.8583 -96.1650 333° Northwest 134 154 8,000 -60 Descending Minneapolis Center
07:19AM 41.8914 -96.1917 329° Northwest 136 157 8,000  Level Minneapolis Center
07:20AM 41.9253 -96.2181 330° Northwest 138 159 8,000  Level Minneapolis Center
07:21AM 41.9572 -96.2431 330° Northwest 137 158 8,000  Level Minneapolis Center
07:22AM 41.9900 -96.2672 331° Northwest 135 155 8,000  Level Minneapolis Center
07:23AM 42.0242 -96.2894 334° Northwest 136 157 8,000  Level Minneapolis Center
07:24AM 42.0603 -96.3083 339° North 137 158 8,000  Level Minneapolis Center
07:25AM 42.0925 -96.3344 329° Northwest 136 157 8,000  Level Minneapolis Center
07:26AM 42.1261 -96.3589 332° Northwest 137 158 8,100 -120 Climbing Minneapolis Center
07:27AM 42.1581 -96.3881 326° Northwest 137 158 7,800 -300 Descending Minneapolis Center
07:28AM 42.1881 -96.4242 318° Northwest 140 161 7,500 -600 Descending Minneapolis Center
07:29AM 42.2228 -96.4586 324° Northwest 146 168 6,700 -840 Descending Minneapolis Center
07:30AM 42.2722 -96.4981 329° Northwest 161 185 5,900 -840 Descending Minneapolis Center
07:31AM 42.3111 -96.5378 323° Northwest 169 194 5,100 -780 Descending Minneapolis Center
07:32AM 42.3486 -96.5825 319° Northwest 174 200 4,400 -600 Descending Minneapolis Center
07:33AM 42.3881 -96.6178 327° Northwest 174 200 4,000 -300 Descending Minneapolis Center
07:34AM 42.4242 -96.6483 328° Northwest 165 190 3,900 -60 Descending Minneapolis Center
07:35AM 42.4547 -96.6744 328° Northwest 159 183 3,900  Level Minneapolis Center
07:37AM 42.5006 -96.7132 328° Northwest  Level FlightAware Approximate
07:44AM 42.7062 -96.8925 327° Northwest  Level FlightAware Approximate
07:45AM 42.7353 -96.9186 324° Northwest  Level FlightAware Approximate
07:46AM 42.7500 -96.9333 324° Northwest  Level FlightAware Approximate